Time;durP1;ratioP1;P1;durP2;ratioP2;P2;SDS_P1;SDS_P2;PMS_P1;PMS_P2;Temp;Humidity;BMP_temperature;BMP_pressure;BME280_temperature;BME280_humidity;BME280_pressure;Samples;Min_cycle;Max_cycle;Signal;HPM_P1;HPM_P2
2021/03/16 00:02:18;;;;;;;9.40;6.67;;;;;;;2.60;100.00;100341.22;5053718;28;20186;-75
2021/03/16 00:04:44;;;;;;;12.30;6.90;;;;;;;2.51;100.00;100337.09;5036572;28;20188;-74
2021/03/16 00:07:09;;;;;;;9.97;6.77;;;;;;;2.51;100.00;100347.63;5077955;22;20233;-71
2021/03/16 00:09:35;;;;;;;13.00;7.40;;;;;;;2.51;100.00;100347.63;5073726;28;20228;-72
2021/03/16 00:12:00;;;;;;;11.13;7.30;;;;;;;2.44;100.00;100340.78;5075177;28;20174;-72
2021/03/16 00:14:25;;;;;;;12.83;8.50;;;;;;;2.46;100.00;100353.03;5057417;28;20209;-72
2021/03/16 00:16:51;;;;;;;19.87;9.93;;;;;;;2.47;100.00;100362.66;5074968;28;20175;-73
2021/03/16 00:19:20;;;;;;;24.83;11.13;;;;;;;2.51;100.00;100352.88;5074851;28;20699;-72
2021/03/16 00:21:45;;;;;;;18.80;12.23;;;;;;;2.55;100.00;100354.53;5073718;28;20184;-72
2021/03/16 00:24:11;;;;;;;22.47;12.03;;;;;;;2.55;100.00;100365.06;5075670;28;20181;-72
2021/03/16 00:26:36;;;;;;;14.93;10.43;;;;;;;2.54;100.00;100358.06;5075007;28;20194;-72
2021/03/16 00:29:02;;;;;;;22.73;11.40;;;;;;;2.59;100.00;100358.81;5073870;28;20256;-73
2021/03/16 00:31:27;;;;;;;19.00;12.20;;;;;;;2.56;100.00;100361.53;5074383;28;20202;-72
2021/03/16 00:33:52;;;;;;;16.50;9.60;;;;;;;2.58;100.00;100364.97;5074981;28;20585;-72
2021/03/16 00:36:18;;;;;;;22.03;11.17;;;;;;;2.48;100.00;100374.91;5073176;28;20184;-72
2021/03/16 00:38:43;;;;;;;21.83;10.23;;;;;;;2.45;100.00;100379.41;5075631;28;20198;-73
2021/03/16 00:41:08;;;;;;;19.13;10.13;;;;;;;2.55;100.00;100382.66;5073252;28;20261;-71
2021/03/16 00:43:34;;;;;;;12.93;9.57;;;;;;;2.50;100.00;100386.28;5074430;28;20204;-72
2021/03/16 00:45:59;;;;;;;12.13;8.43;;;;;;;2.49;100.00;100394.22;5073783;28;20201;-72
2021/03/16 00:48:24;;;;;;;10.37;8.23;;;;;;;2.40;100.00;100389.19;5076319;28;20202;-72
2021/03/16 00:50:50;;;;;;;13.77;9.10;;;;;;;2.43;100.00;100397.03;5073937;28;20604;-73
2021/03/16 00:53:15;;;;;;;17.03;8.83;;;;;;;2.46;100.00;100399.56;5073694;28;20172;-72
2021/03/16 00:55:40;;;;;;;16.47;9.43;;;;;;;2.43;100.00;100400.50;5074702;28;20176;-72
2021/03/16 00:58:06;;;;;;;12.30;8.47;;;;;;;2.45;100.00;100405.75;5073891;28;20551;-72
2021/03/16 01:00:31;;;;;;;11.73;8.50;;;;;;;2.47;100.00;100404.78;5078490;28;20177;-73
2021/03/16 01:02:56;;;;;;;14.50;8.93;;;;;;;2.44;100.00;100409.28;5056278;28;20200;-72
2021/03/16 01:05:22;;;;;;;13.87;8.10;;;;;;;2.39;100.00;100412.03;5079351;28;20207;-73
2021/03/16 01:07:47;;;;;;;11.97;7.27;;;;;;;2.29;100.00;100404.44;5057952;28;20246;-72
2021/03/16 01:10:15;;;;;;;11.20;6.60;;;;;;;2.21;100.00;100415.13;5076397;28;20551;-73
2021/03/16 01:12:44;;;;;;;7.90;6.70;;;;;;;2.22;100.00;100419.50;5077778;28;20168;-73
2021/03/16 01:15:10;;;;;;;10.37;7.07;;;;;;;2.19;100.00;100425.69;5055701;28;20162;-72
2021/03/16 01:17:36;;;;;;;11.77;7.17;;;;;;;2.15;100.00;100413.53;5072263;28;20196;-72
2021/03/16 01:20:07;;;;;;;9.00;6.50;;;;;;;2.04;100.00;100378.72;5072605;28;20230;-72
2021/03/16 01:22:33;;;;;;;7.73;6.17;;;;;;;2.01;100.00;100423.53;5073099;28;20166;-71
2021/03/16 01:24:58;;;;;;;17.23;8.37;;;;;;;2.06;100.00;100429.56;5076529;28;20183;-71
2021/03/16 01:27:23;;;;;;;8.80;6.33;;;;;;;1.99;100.00;100435.88;5077311;28;20226;-71
2021/03/16 01:29:49;;;;;;;12.23;7.27;;;;;;;2.01;100.00;100433.22;5078020;28;20550;-71
2021/03/16 01:32:14;;;;;;;10.37;6.50;;;;;;;2.00;100.00;100429.72;5077951;28;20641;-72
2021/03/16 01:34:39;;;;;;;13.60;6.30;;;;;;;1.95;100.00;100436.00;5077899;28;20228;-71
2021/03/16 01:37:05;;;;;;;10.70;6.73;;;;;;;1.96;100.00;100441.22;5077378;28;20192;-72
2021/03/16 01:39:30;;;;;;;9.53;7.00;;;;;;;1.95;100.00;100446.50;5076227;28;20208;-72
2021/03/16 01:41:55;;;;;;;8.00;6.03;;;;;;;1.98;100.00;100449.06;5076406;28;20182;-72
2021/03/16 01:44:21;;;;;;;9.13;6.47;;;;;;;1.97;100.00;100449.97;5076319;28;20217;-71
2021/03/16 01:46:46;;;;;;;11.87;6.83;;;;;;;1.97;100.00;100460.50;5077860;28;20316;-71
2021/03/16 01:49:11;;;;;;;14.43;7.10;;;;;;;1.94;100.00;100460.59;5076496;28;20173;-72
2021/03/16 01:51:37;;;;;;;9.70;6.33;;;;;;;1.97;100.00;100452.59;5076866;28;20168;-72
2021/03/16 01:54:06;;;;;;;11.57;6.00;;;;;;;1.91;100.00;100460.66;5076815;28;20173;-72
2021/03/16 01:56:32;;;;;;;14.57;6.40;;;;;;;1.88;100.00;100457.19;5076452;28;20686;-71
2021/03/16 01:58:59;;;;;;;7.87;4.93;;;;;;;1.83;100.00;100464.31;5076823;28;20194;-71
2021/03/16 02:01:25;;;;;;;8.90;5.33;;;;;;;1.87;100.00;100468.63;5078103;28;20182;-71
2021/03/16 02:03:52;;;;;;;9.50;5.57;;;;;;;1.81;100.00;100465.25;5077319;28;20177;-72
2021/03/16 02:06:26;;;;;;;9.27;5.50;;;;;;;1.81;100.00;100468.75;5077217;28;20207;-72
2021/03/16 02:09:09;;;;;;;8.83;4.83;;;;;;;1.83;100.00;100473.97;5059337;28;20581;-72
2021/03/16 02:11:45;;;;;;;10.67;5.17;;;;;;;1.80;100.00;100484.56;5076309;28;20559;-72
2021/03/16 02:14:22;;;;;;;12.53;4.97;;;;;;;1.71;100.00;100475.13;5075928;28;20171;-72
2021/03/16 02:17:00;;;;;;;11.93;4.93;;;;;;;1.69;100.00;100484.81;5059083;28;20160;-72
2021/03/16 02:19:49;;;;;;;6.90;4.57;;;;;;;1.72;100.00;100497.03;5076129;28;20565;-72
2021/03/16 02:22:15;;;;;;;15.30;5.37;;;;;;;1.70;100.00;100489.19;5077125;28;20183;-72
2021/03/16 02:24:51;;;;;;;10.80;6.07;;;;;;;1.68;100.00;100495.38;5075617;28;20217;-72
2021/03/16 02:27:18;;;;;;;8.73;5.20;;;;;;;1.72;100.00;100491.78;5077087;28;20202;-72
2021/03/16 02:29:46;;;;;;;13.37;5.50;;;;;;;1.67;100.00;100489.25;5077297;28;20171;-72
2021/03/16 02:32:17;;;;;;;14.53;6.20;;;;;;;1.65;100.00;100498.06;5077204;28;20177;-72
2021/03/16 02:34:47;;;;;;;13.13;5.87;;;;;;;1.71;100.00;100500.56;5059662;28;20168;-72
2021/03/16 02:37:13;;;;;;;12.93;6.33;;;;;;;1.63;100.00;100494.59;5077468;28;20195;-72
2021/03/16 02:39:40;;;;;;;16.60;6.23;;;;;;;1.62;100.00;100496.38;5075851;28;20198;-72
2021/03/16 02:42:07;;;;;;;9.43;5.60;;;;;;;1.64;100.00;100504.22;5075638;28;20239;-72
2021/03/16 02:44:34;;;;;;;16.47;6.00;;;;;;;1.63;100.00;100516.53;5058921;28;20184;-72
2021/03/16 02:47:00;;;;;;;9.07;5.87;;;;;;;1.52;100.00;100511.50;5075530;28;20226;-72
2021/03/16 02:49:25;;;;;;;13.33;5.93;;;;;;;1.54;100.00;100530.75;5058862;28;20178;-72
2021/03/16 02:51:52;;;;;;;13.87;5.80;;;;;;;1.55;100.00;100514.06;5076440;28;20179;-72
2021/03/16 02:54:19;;;;;;;16.10;5.97;;;;;;;1.52;100.00;100522.03;5076544;28;20242;-72
2021/03/16 02:56:46;;;;;;;9.10;5.57;;;;;;;1.51;100.00;100520.28;5074971;28;20635;-72
2021/03/16 02:59:12;;;;;;;11.23;5.17;;;;;;;1.46;100.00;100532.63;5076333;28;20167;-71
2021/03/16 03:01:38;;;;;;;12.70;5.37;;;;;;;1.48;100.00;100530.84;5074453;28;20174;-71
2021/03/16 03:04:07;;;;;;;16.07;5.73;;;;;;;1.41;100.00;100533.63;5074204;28;20179;-71
2021/03/16 03:06:34;;;;;;;11.10;4.87;;;;;;;1.44;100.00;100537.06;5057815;28;20199;-72
2021/03/16 03:09:03;;;;;;;11.27;4.47;;;;;;;1.41;100.00;100533.63;5074135;28;20207;-71
2021/03/16 03:11:32;;;;;;;6.93;3.93;;;;;;;1.37;100.00;100543.34;5074714;28;20174;-69
2021/03/16 03:13:58;;;;;;;9.03;4.53;;;;;;;1.32;100.00;100545.22;5074489;28;20192;-73
2021/03/16 03:16:24;;;;;;;6.77;4.63;;;;;;;1.26;99.37;100542.72;5075468;28;20164;-72
2021/03/16 03:18:49;;;;;;;9.57;5.20;;;;;;;1.21;98.75;100542.78;5057254;28;20201;-72
2021/03/16 03:21:16;;;;;;;10.57;5.07;;;;;;;1.24;100.00;100555.00;5057911;28;20205;-72
2021/03/16 03:23:56;;;;;;;6.53;4.50;;;;;;;1.21;100.00;100563.84;5078229;28;20250;-72
2021/03/16 03:26:31;;;;;;;10.73;5.27;;;;;;;1.21;100.00;100568.22;5079183;28;20192;-71
2021/03/16 03:28:57;;;;;;;5.70;4.07;;;;;;;1.18;96.76;100545.50;5080247;28;20204;-71
2021/03/16 03:31:22;;;;;;;7.23;4.60;;;;;;;1.17;97.34;100571.81;5079803;28;20198;-72
2021/03/16 03:33:49;;;;;;;8.30;3.90;;;;;;;1.13;96.81;100580.66;5076438;28;20795;-71
2021/03/16 03:36:14;;;;;;;7.30;4.33;;;;;;;1.09;97.14;100578.94;5074178;28;20201;-72
2021/03/16 03:38:40;;;;;;;8.83;4.87;;;;;;;1.06;97.66;100579.88;5075631;28;20190;-72
2021/03/16 03:41:06;;;;;;;10.67;6.20;;;;;;;1.06;98.30;100592.13;5058634;28;20167;-72
2021/03/16 03:43:33;;;;;;;9.00;5.90;;;;;;;1.07;99.11;100593.88;5075858;28;20183;-72
2021/03/16 03:45:59;;;;;;;7.80;5.60;;;;;;;1.10;99.09;100596.44;5075352;28;20195;-72
2021/03/16 03:48:26;;;;;;;11.67;5.63;;;;;;;1.10;99.48;100601.69;5075482;28;20617;-72
2021/03/16 03:50:52;;;;;;;12.00;6.80;;;;;;;1.11;100.00;100608.69;5075459;28;20173;-73
2021/03/16 03:53:18;;;;;;;8.33;5.67;;;;;;;1.12;100.00;100613.97;5076816;28;20171;-72
2021/03/16 03:55:44;;;;;;;7.93;6.00;;;;;;;1.11;100.00;100600.81;5075575;28;20173;-71
2021/03/16 03:58:10;;;;;;;7.33;4.87;;;;;;;1.04;99.54;100609.69;5076510;28;20194;-71
2021/03/16 04:00:36;;;;;;;10.67;5.27;;;;;;;1.07;99.30;100612.28;5076552;28;20461;-71
2021/03/16 04:03:01;;;;;;;12.90;5.47;;;;;;;1.04;99.79;100628.09;5074857;28;20225;-72
2021/03/16 04:05:27;;;;;;;10.30;5.83;;;;;;;0.99;98.04;100625.56;5075565;28;20190;-71
2021/03/16 04:07:54;;;;;;;10.23;6.03;;;;;;;0.98;98.86;100628.22;5074783;28;20579;-71
2021/03/16 04:10:20;;;;;;;12.20;6.37;;;;;;;0.97;98.76;100632.59;5055915;28;20175;-72
2021/03/16 04:12:46;;;;;;;10.57;6.30;;;;;;;0.93;99.64;100638.81;5072714;28;20167;-71
2021/03/16 04:15:13;;;;;;;11.47;6.53;;;;;;;1.01;100.00;100638.66;5072936;28;20163;-71
2021/03/16 04:17:40;;;;;;;9.70;6.63;;;;;;;1.03;100.00;100636.88;5072290;28;20559;-71
2021/03/16 04:20:07;;;;;;;14.97;7.00;;;;;;;1.06;100.00;100645.56;5072809;28;20167;-72
2021/03/16 04:22:32;;;;;;;12.33;6.60;;;;;;;1.08;100.00;100656.06;5055774;28;20666;-71
2021/03/16 04:24:58;;;;;;;9.87;7.43;;;;;;;1.10;100.00;100656.91;5072191;28;20175;-72
2021/03/16 04:27:24;;;;;;;9.87;5.67;;;;;;;1.03;100.00;100661.41;5073790;28;20205;-72
2021/03/16 04:29:49;;;;;;;10.27;5.83;;;;;;;1.04;100.00;100654.38;5074035;28;20171;-71
2021/03/16 04:32:14;;;;;;;10.83;5.80;;;;;;;1.08;100.00;100672.69;5072743;28;20225;-71
2021/03/16 04:34:40;;;;;;;15.87;7.20;;;;;;;1.08;100.00;100666.56;5072489;28;20186;-72
2021/03/16 04:37:05;;;;;;;9.40;5.53;;;;;;;1.05;100.00;100664.88;5073454;28;20191;-72
2021/03/16 04:39:30;;;;;;;14.17;6.33;;;;;;;1.06;100.00;100663.97;5072773;28;20180;-71
2021/03/16 04:41:56;;;;;;;13.57;6.80;;;;;;;1.02;100.00;100672.81;5072331;28;20175;-71
2021/03/16 04:44:21;;;;;;;12.67;7.03;;;;;;;0.97;100.00;100663.28;5073073;28;20639;-72
2021/03/16 04:46:46;;;;;;;14.53;6.73;;;;;;;0.98;100.00;100665.88;5073582;28;20195;-72
2021/03/16 04:49:12;;;;;;;9.97;6.97;;;;;;;0.99;100.00;100669.38;5075079;28;20167;-73
2021/03/16 04:51:37;;;;;;;9.57;6.13;;;;;;;0.94;100.00;100680.81;5074643;28;20210;-71
2021/03/16 04:54:03;;;;;;;10.83;6.70;;;;;;;0.96;100.00;100672.03;5075295;28;20187;-72
2021/03/16 04:56:28;;;;;;;15.50;7.10;;;;;;;0.93;100.00;100678.22;5073829;28;20171;-71
2021/03/16 04:58:53;;;;;;;13.23;7.53;;;;;;;0.98;100.00;100679.00;5072365;28;20194;-71
2021/03/16 05:01:19;;;;;;;12.47;7.63;;;;;;;0.93;100.00;100694.84;5074557;28;20167;-73
2021/03/16 05:03:44;;;;;;;14.23;7.63;;;;;;;0.91;100.00;100690.53;5072971;28;20209;-73
2021/03/16 05:06:09;;;;;;;13.70;6.60;;;;;;;0.93;100.00;100694.00;5074214;28;20202;-72
2021/03/16 05:08:34;;;;;;;10.50;7.00;;;;;;;0.89;100.00;100692.31;5075389;28;20571;-72
2021/03/16 05:11:00;;;;;;;11.57;6.43;;;;;;;0.92;100.00;100694.88;5056664;28;20174;-72
2021/03/16 05:13:25;;;;;;;11.90;6.70;;;;;;;0.94;100.00;100701.84;5073129;28;20659;-72
2021/03/16 05:15:50;;;;;;;12.50;6.53;;;;;;;0.94;100.00;100711.50;5074823;28;20171;-73
2021/03/16 05:18:16;;;;;;;15.70;6.80;;;;;;;0.93;100.00;100708.00;5074186;28;20202;-72
2021/03/16 05:20:42;;;;;;;12.13;7.13;;;;;;;0.90;100.00;100713.31;5074200;28;20235;-73
2021/03/16 05:23:07;;;;;;;15.80;7.00;;;;;;;0.92;100.00;100721.16;5075017;28;20337;-73
2021/03/16 05:25:32;;;;;;;13.50;7.03;;;;;;;0.98;100.00;100712.31;5074534;28;20282;-72
2021/03/16 05:27:58;;;;;;;11.47;6.67;;;;;;;0.98;100.00;100714.94;5074404;28;20191;-72
2021/03/16 05:30:24;;;;;;;9.20;6.47;;;;;;;0.99;100.00;100722.78;5074229;28;20236;-73
2021/03/16 05:33:00;;;;;;;12.77;6.77;;;;;;;1.02;100.00;100729.75;5073586;28;20175;-72
2021/03/16 05:35:25;;;;;;;17.73;8.03;;;;;;;1.02;100.00;100724.50;5073058;28;20169;-72
2021/03/16 05:37:51;;;;;;;16.23;6.30;;;;;;;1.07;100.00;100738.44;5073936;28;20206;-72
2021/03/16 05:40:17;;;;;;;15.30;5.90;;;;;;;1.09;100.00;100731.41;5074454;28;20251;-71
2021/03/16 05:42:42;;;;;;;11.20;5.67;;;;;;;1.04;99.41;100730.59;5074888;28;20171;-73
2021/03/16 05:45:08;;;;;;;15.70;5.93;;;;;;;1.08;100.00;100734.91;5075847;28;20182;-73
2021/03/16 05:47:34;;;;;;;12.60;6.80;;;;;;;1.06;99.92;100741.97;5073587;28;20192;-73
2021/03/16 05:50:01;;;;;;;7.47;4.30;;;;;;;1.14;99.16;100740.09;5075110;28;20179;-72
2021/03/16 05:52:26;;;;;;;9.37;4.50;;;;;;;1.04;98.47;100744.63;5074390;28;20188;-72
2021/03/16 05:54:54;;;;;;;11.00;5.33;;;;;;;1.04;99.13;100751.63;5073422;28;20660;-72
2021/03/16 05:57:21;;;;;;;7.13;4.80;;;;;;;1.01;98.50;100749.06;5074326;28;20197;-71
2021/03/16 05:59:47;;;;;;;7.77;5.37;;;;;;;1.04;98.23;100749.88;5074608;28;20512;-73
2021/03/16 06:02:13;;;;;;;10.63;4.70;;;;;;;1.09;98.25;100747.16;5074446;28;20172;-72
2021/03/16 06:04:41;;;;;;;13.10;4.97;;;;;;;0.99;97.74;100756.97;5073704;28;20190;-73
2021/03/16 06:07:06;;;;;;;7.23;4.53;;;;;;;0.97;97.84;100750.88;5095666;22;20254;-74
2021/03/16 06:09:33;;;;;;;8.53;4.67;;;;;;;0.92;98.12;100755.31;5033536;28;20204;-72
2021/03/16 06:11:58;;;;;;;7.80;3.70;;;;;;;0.99;96.60;100750.84;5056039;28;20189;-72
2021/03/16 06:14:31;;;;;;;5.00;3.50;;;;;;;0.99;94.71;100753.47;5056065;28;20251;-72
2021/03/16 06:16:56;;;;;;;7.90;4.33;;;;;;;1.06;95.87;100760.38;5056530;28;20222;-72
2021/03/16 06:19:26;;;;;;;9.70;4.10;;;;;;;1.11;93.97;100764.66;5054728;28;20204;-72
2021/03/16 06:21:59;;;;;;;6.27;4.00;;;;;;;1.31;91.72;100761.72;5055029;28;20231;-71
2021/03/16 06:24:25;;;;;;;5.87;3.90;;;;;;;1.41;89.94;100765.94;5054768;28;20199;-72
2021/03/16 06:26:50;;;;;;;7.37;3.57;;;;;;;1.50;89.58;100770.19;5037878;28;20668;-71
2021/03/16 06:29:15;;;;;;;9.47;3.70;;;;;;;1.55;87.44;100779.75;5055699;28;20210;-71
2021/03/16 06:31:41;;;;;;;5.30;3.30;;;;;;;1.73;88.42;100786.44;5056355;28;20513;-72
2021/03/16 06:34:06;;;;;;;10.90;3.70;;;;;;;1.68;88.08;100788.28;5055344;28;20200;-72
2021/03/16 06:36:32;;;;;;;8.23;3.37;;;;;;;1.74;86.69;100790.81;5055953;28;20176;-73
2021/03/16 06:38:58;;;;;;;7.73;2.93;;;;;;;1.78;85.27;100794.25;5054655;28;20204;-73
2021/03/16 06:41:24;;;;;;;6.17;3.10;;;;;;;1.82;86.97;100803.81;5055833;28;20200;-71
2021/03/16 06:43:58;;;;;;;6.33;3.00;;;;;;;1.79;86.00;100803.88;5054551;28;20571;-71
2021/03/16 06:46:32;;;;;;;6.97;3.23;;;;;;;1.79;84.39;100802.13;5054670;28;20711;-72
2021/03/16 06:48:57;;;;;;;4.47;2.80;;;;;;;1.79;84.19;100801.25;5054764;28;20276;-71
2021/03/16 06:51:29;;;;;;;4.40;2.80;;;;;;;1.80;83.18;100806.47;5054235;28;20754;-71
2021/03/16 06:54:06;;;;;;;4.53;2.47;;;;;;;1.88;83.66;100804.59;5056625;28;20172;-71
2021/03/16 06:56:32;;;;;;;5.13;2.60;;;;;;;1.73;81.59;100810.13;5054928;28;20160;-71
2021/03/16 06:58:57;;;;;;;6.67;3.30;;;;;;;1.84;82.17;100818.69;5054122;28;20207;-71
2021/03/16 07:01:24;;;;;;;4.73;3.00;;;;;;;2.01;82.70;100817.53;5054450;28;20179;-73
2021/03/16 07:03:50;;;;;;;6.27;2.30;;;;;;;1.81;80.12;100810.84;5055272;28;20720;-66
2021/03/16 07:06:18;;;;;;;7.80;2.87;;;;;;;2.04;80.86;100815.72;5055102;28;20205;-71
2021/03/16 07:08:45;;;;;;;5.00;2.13;;;;;;;1.84;79.33;100810.78;5054861;28;20217;-71
2021/03/16 07:11:23;;;;;;;6.03;2.83;;;;;;;1.94;80.59;100824.69;5054039;28;20204;-72
2021/03/16 07:13:49;;;;;;;3.87;2.10;;;;;;;2.05;80.30;100827.97;5053735;28;20162;-71
2021/03/16 07:16:14;;;;;;;4.87;2.43;;;;;;;1.77;79.38;100826.72;5054538;28;20228;-71
2021/03/16 07:18:42;;;;;;;6.00;2.33;;;;;;;2.04;79.08;100839.41;5054625;28;20533;-72
2021/03/16 07:21:08;;;;;;;7.47;2.37;;;;;;;1.88;78.37;100841.47;5052680;28;20257;-72
2021/03/16 07:23:38;;;;;;;7.50;2.43;;;;;;;1.95;79.07;100855.38;5054759;28;20263;-73
2021/03/16 07:26:04;;;;;;;3.93;2.30;;;;;;;1.97;79.43;100858.84;5054362;28;20218;-73
2021/03/16 07:28:31;;;;;;;5.67;3.03;;;;;;;1.92;80.08;100860.69;5036625;28;20201;-71
2021/03/16 07:30:56;;;;;;;5.83;2.60;;;;;;;1.80;79.95;100850.34;5053431;28;20661;-72
2021/03/16 07:33:21;;;;;;;7.43;2.30;;;;;;;1.76;79.72;100860.06;5053800;28;20178;-72
2021/03/16 07:35:48;;;;;;;5.73;2.47;;;;;;;1.72;80.70;100862.78;5053606;28;20257;-72
2021/03/16 07:38:13;;;;;;;5.10;2.40;;;;;;;1.63;79.91;100861.16;5053714;28;20254;-72
2021/03/16 07:40:40;;;;;;;2.43;1.93;;;;;;;1.75;80.34;100881.16;5053319;28;20653;-71
2021/03/16 07:43:10;;;;;;;3.90;2.30;;;;;;;1.68;80.94;100874.25;5052952;28;20194;-72
2021/03/16 07:45:36;;;;;;;7.40;2.57;;;;;;;1.68;80.87;100871.63;5054239;28;20279;-71
2021/03/16 07:48:12;;;;;;;5.40;2.43;;;;;;;1.72;80.47;100881.19;5053061;28;20250;-71
2021/03/16 07:50:38;;;;;;;3.73;2.30;;;;;;;1.90;80.04;100885.31;5054937;28;20171;-72
2021/03/16 07:53:03;;;;;;;3.87;2.10;;;;;;;1.85;79.41;100875.69;5054859;28;20201;-71
2021/03/16 07:55:29;;;;;;;5.37;2.57;;;;;;;1.79;78.59;100873.16;5054134;28;20177;-71
2021/03/16 07:58:09;;;;;;;5.37;2.23;;;;;;;1.82;78.40;100872.25;5053927;28;20211;-72
2021/03/16 08:00:34;;;;;;;4.00;2.40;;;;;;;2.02;78.38;100872.81;5053170;28;20190;-72
2021/03/16 08:03:01;;;;;;;6.20;2.57;;;;;;;2.02;77.52;100891.22;5053008;28;20177;-71
2021/03/16 08:05:26;;;;;;;5.47;2.17;;;;;;;2.31;76.50;100906.53;5035871;28;20676;-72
2021/03/16 08:07:53;;;;;;;3.50;1.80;;;;;;;2.39;76.77;100906.38;5052713;28;20211;-72
2021/03/16 08:10:29;;;;;;;3.87;2.17;;;;;;;2.47;76.92;100915.00;5035883;28;20173;-72
2021/03/16 08:13:03;;;;;;;3.47;2.13;;;;;;;2.47;76.18;100905.34;5052704;28;20221;-72
2021/03/16 08:15:46;;;;;;;2.93;2.30;;;;;;;2.54;75.51;100908.72;5052656;28;20177;-71
2021/03/16 08:18:12;;;;;;;5.77;1.90;;;;;;;2.67;75.39;100922.56;5053214;28;20198;-72
2021/03/16 08:20:38;;;;;;;4.40;1.70;;;;;;;2.80;75.31;100917.00;5052674;28;20199;-72
2021/03/16 08:23:09;;;;;;;6.77;2.13;;;;;;;2.61;75.29;100923.53;5053617;28;20182;-72
2021/03/16 08:25:36;;;;;;;5.50;2.30;;;;;;;2.70;77.03;100927.75;5052399;28;20279;-72
2021/03/16 08:28:07;;;;;;;5.13;2.43;;;;;;;2.74;76.69;100939.97;5058959;28;20198;-72
2021/03/16 08:30:34;;;;;;;7.00;2.13;;;;;;;2.84;76.09;100938.91;5065107;28;20158;-71
2021/03/16 08:33:08;;;;;;;3.97;2.50;;;;;;;2.72;76.20;100937.38;5061025;28;20186;-72
2021/03/16 08:35:33;;;;;;;4.37;2.13;;;;;;;2.88;75.29;100939.72;5057666;28;20173;-72
2021/03/16 08:37:59;;;;;;;5.30;2.43;;;;;;;2.81;74.84;100937.19;5053435;28;20202;-72
2021/03/16 08:40:24;;;;;;;4.67;1.90;;;;;;;2.82;74.80;100933.66;5053781;28;20536;-72
2021/03/16 08:42:50;;;;;;;6.90;2.17;;;;;;;2.97;74.91;100936.88;5052237;28;20274;-73
2021/03/16 08:45:25;;;;;;;4.13;2.47;;;;;;;2.88;74.41;100937.94;5053494;28;20595;-72
2021/03/16 08:47:51;;;;;;;5.73;3.00;;;;;;;2.85;75.15;100942.41;5053441;28;20229;-71
2021/03/16 08:50:22;;;;;;;4.67;2.37;;;;;;;3.05;74.26;100950.81;5053742;28;20182;-72
2021/03/16 08:52:47;;;;;;;4.70;2.30;;;;;;;3.16;73.19;100938.25;5052328;28;20494;-72
2021/03/16 08:55:28;;;;;;;6.23;2.60;;;;;;;3.28;70.79;100948.53;5051969;28;20178;-72
2021/03/16 08:57:54;;;;;;;4.53;2.73;;;;;;;3.21;70.91;100949.56;5053358;28;20280;-72
2021/03/16 09:00:27;;;;;;;8.50;2.63;;;;;;;3.24;70.64;100952.16;5053453;28;20185;-72
2021/03/16 09:02:53;;;;;;;2.83;1.90;;;;;;;3.13;70.33;100949.75;5052434;28;20185;-72
2021/03/16 09:05:21;;;;;;;5.20;2.47;;;;;;;3.36;70.01;100957.19;5053015;28;20172;-73
2021/03/16 09:07:47;;;;;;;5.83;2.17;;;;;;;3.48;68.80;100956.03;5052207;28;20203;-72
2021/03/16 09:10:18;;;;;;;4.87;1.63;;;;;;;3.58;70.25;100961.97;5051987;28;20182;-73
2021/03/16 09:12:46;;;;;;;11.50;4.00;;;;;;;3.73;68.92;100964.28;5051887;28;20152;-73
2021/03/16 09:15:17;;;;;;;17.40;10.53;;;;;;;3.83;68.81;100963.19;5051924;28;20540;-73
2021/03/16 09:17:44;;;;;;;17.23;9.07;;;;;;;4.03;68.13;100968.84;5035197;28;20191;-74
2021/03/16 09:20:37;;;;;;;5.80;3.43;;;;;;;3.72;67.21;100966.06;5052018;28;20175;-74
2021/03/16 09:23:07;;;;;;;3.23;1.77;;;;;;;3.66;67.49;100960.91;5049310;28;20195;-73
2021/03/16 09:25:35;;;;;;;2.77;1.57;;;;;;;3.51;68.48;100963.03;5052975;28;20195;-73
2021/03/16 09:28:01;;;;;;;3.03;1.73;;;;;;;3.54;68.94;100962.94;5052122;28;20532;-73
2021/03/16 09:30:29;;;;;;;11.07;1.77;;;;;;;3.49;69.05;100967.47;5035202;28;20197;-72
2021/03/16 09:32:54;;;;;;;3.97;1.60;;;;;;;3.30;69.61;100975.75;5051825;28;20670;-73
2021/03/16 09:35:20;;;;;;;3.07;1.87;;;;;;;3.52;69.24;100984.09;5052743;28;20176;-73
2021/03/16 09:37:47;;;;;;;5.57;1.90;;;;;;;3.95;68.19;100988.41;5051957;28;20222;-72
2021/03/16 09:40:14;;;;;;;4.90;1.73;;;;;;;3.61;68.40;100983.03;5053121;28;20171;-72
2021/03/16 09:42:46;;;;;;;2.67;1.73;;;;;;;3.35;69.42;100980.97;5034978;28;20697;-73
2021/03/16 09:45:18;;;;;;;5.03;1.57;;;;;;;3.80;68.46;100978.22;5053160;28;20544;-73
2021/03/16 09:47:43;;;;;;;4.17;1.60;;;;;;;3.71;67.08;100977.50;5039375;28;20557;-73
2021/03/16 09:50:10;;;;;;;4.73;1.43;;;;;;;3.52;68.38;100999.94;5055918;28;20171;-73
2021/03/16 09:52:36;;;;;;;2.03;1.37;;;;;;;3.44;70.30;100988.69;5056578;28;20222;-72
2021/03/16 09:55:02;;;;;;;2.53;1.63;;;;;;;3.53;70.61;100992.88;5055687;28;20206;-71
2021/03/16 09:57:32;;;;;;;2.43;1.67;;;;;;;3.47;70.48;100993.03;5055354;28;20192;-72
2021/03/16 09:59:58;;;;;;;2.87;1.50;;;;;;;3.99;68.70;101001.50;5055857;28;20535;-72
2021/03/16 10:02:31;;;;;;;5.77;1.60;;;;;;;4.20;65.34;101007.22;5055293;28;20182;-73
2021/03/16 10:05:04;;;;;;;3.30;1.60;;;;;;;4.08;66.28;100997.78;5055491;28;20156;-74
2021/03/16 10:07:31;;;;;;;3.97;1.53;;;;;;;4.25;65.64;100997.41;5055333;28;20257;-75
2021/03/16 10:10:17;;;;;;;5.20;1.40;;;;;;;3.78;68.11;100999.38;5056891;28;20191;-71
2021/03/16 10:12:58;;;;;;;2.57;1.40;;;;;;;3.81;67.74;100999.31;5055005;28;20670;-73
2021/03/16 10:15:28;;;;;;;4.30;1.50;;;;;;;3.56;69.02;101014.81;5055433;28;20213;-74
2021/03/16 10:17:54;;;;;;;3.20;1.53;;;;;;;3.51;70.17;101019.31;5056128;28;20191;-73
2021/03/16 10:20:40;;;;;;;3.93;1.50;;;;;;;3.20;70.41;101029.59;5055542;28;20593;-73
2021/03/16 10:23:07;;;;;;;2.33;1.50;;;;;;;3.33;70.44;101019.66;5038305;28;20167;-72
2021/03/16 10:25:34;;;;;;;3.37;1.77;;;;;;;3.26;70.87;101012.78;5055433;28;20290;-72
2021/03/16 10:28:07;;;;;;;5.07;1.90;;;;;;;3.20;71.53;101026.97;5055388;28;20195;-72
2021/03/16 10:30:36;;;;;;;6.80;2.00;;;;;;;3.00;72.87;101031.78;5055311;28;20167;-72
2021/03/16 10:33:02;;;;;;;4.60;2.00;;;;;;;3.10;73.66;101043.88;5056331;28;20175;-73
2021/03/16 10:35:28;;;;;;;2.70;1.63;;;;;;;3.11;73.15;101038.56;5054711;28;20175;-74
2021/03/16 10:37:53;;;;;;;4.77;1.83;;;;;;;3.28;72.62;101038.25;5054612;28;20192;-73
2021/03/16 10:40:19;;;;;;;4.63;2.20;;;;;;;3.06;73.52;101045.72;5054625;28;20205;-72
2021/03/16 10:42:44;;;;;;;6.30;2.47;;;;;;;2.97;73.49;101045.84;5055708;28;20178;-74
2021/03/16 10:45:10;;;;;;;2.80;1.70;;;;;;;3.13;74.04;101049.97;5056846;28;20643;-72
2021/03/16 10:47:35;;;;;;;2.67;1.80;;;;;;;3.06;73.92;101055.38;5054330;28;20199;-72
2021/03/16 10:50:00;;;;;;;4.27;1.93;;;;;;;3.11;74.22;101064.09;5054272;28;20195;-72
2021/03/16 10:52:26;;;;;;;2.60;1.10;;;;;;;3.16;71.39;101053.44;5055641;28;20556;-72
2021/03/16 10:54:51;;;;;;;2.63;1.20;;;;;;;3.08;71.71;101057.09;5055480;28;20198;-75
2021/03/16 10:57:16;;;;;;;3.30;1.20;;;;;;;3.06;72.66;101063.31;5054468;28;20533;-73
2021/03/16 10:59:42;;;;;;;5.60;1.50;;;;;;;3.08;72.46;101053.59;5037686;28;20214;-72
2021/03/16 11:02:08;;;;;;;3.83;1.50;;;;;;;3.01;71.80;101055.47;5055357;28;20175;-72
2021/03/16 11:04:35;;;;;;;2.53;1.60;;;;;;;3.28;70.83;101059.34;5037560;28;20182;-72
2021/03/16 11:07:00;;;;;;;2.60;1.57;;;;;;;3.60;69.41;101066.63;5037749;28;20222;-72
2021/03/16 11:09:25;;;;;;;2.27;1.50;;;;;;;3.59;69.54;101064.00;5054363;28;20698;-73
2021/03/16 11:11:51;;;;;;;4.53;1.37;;;;;;;3.82;68.37;101053.84;5055555;28;20648;-74
2021/03/16 11:14:16;;;;;;;4.03;1.70;;;;;;;3.22;71.25;101062.09;5056471;28;20176;-73
2021/03/16 11:16:41;;;;;;;2.57;1.50;;;;;;;3.72;70.01;101054.97;5055234;28;20217;-72
2021/03/16 11:19:07;;;;;;;2.73;1.73;;;;;;;3.53;71.18;101058.88;5056212;28;20203;-72
2021/03/16 11:21:32;;;;;;;3.90;1.70;;;;;;;3.70;69.95;101056.72;5037202;28;20632;-72
2021/03/16 11:23:59;;;;;;;3.63;1.50;;;;;;;3.66;70.77;101050.66;5037379;28;20687;-73
2021/03/16 11:26:25;;;;;;;4.03;1.80;;;;;;;3.77;70.09;101061.00;5058015;28;20196;-72
2021/03/16 11:28:50;;;;;;;9.20;1.83;;;;;;;3.41;71.49;101066.13;5062463;28;20191;-72